Time;durP1;ratioP1;P1;durP2;ratioP2;P2;SDS_P1;SDS_P2;PMS_P1;PMS_P2;Temp;Humidity;BMP_temperature;BMP_pressure;BME280_temperature;BME280_humidity;BME280_pressure;Samples;Min_cycle;Max_cycle;Signal;HPM_P1;HPM_P2
2022/01/18 00:00:15;;;;;;;1.60;1.25;;;;;;;2.81;74.25;96258.53;5113821;28;20032;-62
2022/01/18 00:02:41;;;;;;;2.22;1.30;;;;;;;2.77;74.90;96260.31;5113204;28;20028;-62
2022/01/18 00:05:13;;;;;;;2.05;1.80;;;;;;;2.78;74.93;96260.31;5112637;28;20019;-62
2022/01/18 00:07:39;;;;;;;1.50;1.38;;;;;;;2.72;75.46;96267.25;5113982;28;20035;-62
2022/01/18 00:10:05;;;;;;;1.38;1.20;;;;;;;2.61;75.72;96282.84;5113747;28;20469;-61
2022/01/18 00:23:17;;;;;;;6.20;2.20;;;;;;;2.18;78.45;96282.41;5084358;28;20070;-61
2022/01/18 00:25:47;;;;;;;5.65;2.10;;;;;;;2.09;78.71;96288.50;5113516;28;20023;-62
2022/01/18 00:28:13;;;;;;;1.92;1.73;;;;;;;2.07;79.05;96299.69;5113462;28;20481;-61
2022/01/18 00:34:17;;;;;;;4.78;2.65;;;;;;;1.97;79.73;96294.63;5113716;28;20081;-62
2022/01/18 00:36:23;;;;;;;6.18;3.60;;;;;;;1.99;79.84;96303.19;5102373;28;20119;-62
2022/01/18 00:38:48;;;;;;;6.00;2.78;;;;;;;1.97;80.33;96291.19;5113504;28;20433;-62
2022/01/18 00:41:16;;;;;;;5.40;2.58;;;;;;;1.98;79.77;96306.66;5113458;28;20103;-63
2022/01/18 00:43:43;;;;;;;16.58;8.48;;;;;;;1.92;79.96;96308.44;5113407;28;20024;-62
2022/01/18 00:46:11;;;;;;;5.97;3.60;;;;;;;1.91;80.04;96310.16;5113389;28;20026;-63
2022/01/18 00:48:37;;;;;;;4.38;3.20;;;;;;;1.81;80.37;96295.59;5113240;28;20059;-62
2022/01/18 00:51:04;;;;;;;3.70;2.30;;;;;;;1.89;80.00;96309.28;5113236;28;20410;-61
2022/01/18 00:53:32;;;;;;;1.92;1.73;;;;;;;1.93;79.94;96320.47;5113265;28;20035;-61
2022/01/18 00:58:54;;;;;;;2.80;2.00;;;;;;;2.00;78.49;96306.63;5099694;28;20043;-62
2022/01/18 01:01:23;;;;;;;2.30;1.98;;;;;;;2.06;79.11;96308.31;5113210;28;20027;-61
2022/01/18 01:03:50;;;;;;;8.52;2.30;;;;;;;2.04;79.25;96318.66;5113205;28;20478;-62
2022/01/18 01:06:16;;;;;;;3.92;2.53;;;;;;;2.06;79.74;96332.41;5113085;28;20080;-63
2022/01/18 01:08:42;;;;;;;2.95;1.98;;;;;;;2.06;79.07;96371.13;5113232;28;20019;-63
2022/01/18 01:11:09;;;;;;;2.30;1.88;;;;;;;2.03;79.35;96365.97;5113152;28;20015;-63
2022/01/18 01:13:39;;;;;;;2.72;1.88;;;;;;;2.05;78.01;96382.31;5114158;28;20385;-63
2022/01/18 01:16:32;;;;;;;2.70;1.67;;;;;;;2.06;77.33;96404.66;5117072;28;20043;-61
2022/01/18 01:34:59;;;;;;;4.13;1.60;;;;;;;0.98;72.79;96394.81;5116606;28;20036;-63
2022/01/18 01:45:29;;;;;;;1.63;1.13;;;;;;;1.11;70.02;96460.03;5116826;28;20138;-62
2022/01/18 01:47:57;;;;;;;1.85;1.20;;;;;;;1.12;68.87;96442.88;5116296;28;20106;-63
2022/01/18 01:50:25;;;;;;;1.40;1.10;;;;;;;1.12;69.80;96451.44;5116449;28;20032;-62
2022/01/18 01:52:54;;;;;;;1.30;0.90;;;;;;;1.09;66.76;96440.31;5116376;28;20038;-62
2022/01/18 01:55:21;;;;;;;1.45;0.80;;;;;;;1.08;66.08;96423.13;5116340;28;20031;-62
2022/01/18 01:57:47;;;;;;;1.17;0.90;;;;;;;1.09;63.29;96424.84;5116329;28;20465;-61
2022/01/18 02:00:17;;;;;;;2.72;1.20;;;;;;;1.03;62.79;96445.47;5116299;28;20103;-63
2022/01/18 02:02:43;;;;;;;1.98;1.15;;;;;;;1.12;61.60;96450.59;5116155;28;20023;-61
2022/01/18 02:05:10;;;;;;;0.77;0.75;;;;;;;1.20;61.18;96458.31;5116066;28;20049;-63
2022/01/18 02:07:36;;;;;;;1.95;1.45;;;;;;;1.09;61.32;96464.34;5114800;28;20028;-61
2022/01/18 02:10:03;;;;;;;2.45;1.10;;;;;;;1.16;56.82;96451.44;5115997;28;20019;-63
2022/01/18 02:12:29;;;;;;;5.25;1.35;;;;;;;1.24;58.71;96460.88;5115911;28;20023;-63
2022/01/18 02:14:59;;;;;;;4.68;1.40;;;;;;;1.33;59.59;96470.31;5115820;28;20504;-61
2022/01/18 02:22:55;;;;;;;2.92;1.70;;;;;;;1.35;58.70;96483.19;5116025;28;20038;-63
2022/01/18 02:25:20;;;;;;;1.70;1.55;;;;;;;1.35;59.43;96486.63;5115085;28;20027;-63
2022/01/18 02:27:46;;;;;;;2.95;1.63;;;;;;;1.34;58.90;96484.06;5115585;28;20140;-63
2022/01/18 02:30:12;;;;;;;2.47;1.60;;;;;;;1.38;58.16;96486.63;5115657;28;20057;-61
2022/01/18 02:32:38;;;;;;;3.05;2.00;;;;;;;1.41;58.53;96505.53;5115553;28;20035;-63
2022/01/18 02:35:05;;;;;;;2.58;1.75;;;;;;;1.37;57.05;96508.13;5115364;28;20033;-61
2022/01/18 02:37:30;;;;;;;1.42;1.30;;;;;;;1.42;56.62;96514.97;5115379;28;20045;-63
2022/01/18 02:39:57;;;;;;;2.80;1.83;;;;;;;1.47;56.66;96534.72;5115385;28;20019;-63
2022/01/18 02:42:28;;;;;;;3.28;1.98;;;;;;;1.46;58.21;96540.75;5115524;28;20023;-63
2022/01/18 02:44:53;;;;;;;1.65;1.50;;;;;;;1.46;58.26;96545.03;5115532;28;20095;-62
2022/01/18 02:47:20;;;;;;;2.92;1.60;;;;;;;1.46;58.19;96552.78;5115263;28;20533;-63
2022/01/18 02:49:47;;;;;;;2.13;1.60;;;;;;;1.36;59.49;96549.38;5115143;28;20034;-62
2022/01/18 02:52:15;;;;;;;2.55;1.80;;;;;;;1.41;57.19;96546.78;5115093;28;20102;-63
2022/01/18 02:54:41;;;;;;;1.88;1.45;;;;;;;1.35;56.01;96573.41;5115062;28;20074;-63
2022/01/18 02:57:12;;;;;;;2.58;1.50;;;;;;;1.29;56.80;96570.88;5115070;28;20039;-62
2022/01/18 03:05:07;;;;;;;2.35;1.80;;;;;;;1.09;55.71;96608.63;5115299;28;20042;-63
2022/01/18 03:07:33;;;;;;;1.48;1.20;;;;;;;1.03;54.25;96603.50;5114835;28;20465;-63
2022/01/18 03:09:58;;;;;;;2.47;1.60;;;;;;;1.05;54.90;96613.81;5114807;28;20095;-63
2022/01/18 03:12:24;;;;;;;2.05;1.25;;;;;;;0.95;54.95;96603.47;5113605;28;20126;-62
2022/01/18 03:14:50;;;;;;;1.70;1.33;;;;;;;0.97;54.48;96614.63;5114666;28;20020;-63
2022/01/18 03:17:15;;;;;;;3.25;1.65;;;;;;;0.92;52.80;96624.09;5114607;28;20028;-62
2022/01/18 03:19:41;;;;;;;1.63;1.38;;;;;;;0.83;53.37;96635.25;5114477;28;20405;-62
2022/01/18 03:22:07;;;;;;;1.77;1.17;;;;;;;0.81;52.57;96636.94;5114560;28;20015;-63
2022/01/18 03:30:05;;;;;;;2.33;1.45;;;;;;;0.76;53.10;96648.97;5114739;28;20083;-62
2022/01/18 03:32:31;;;;;;;5.47;1.20;;;;;;;0.73;52.43;96661.81;5114420;28;20018;-62
2022/01/18 03:34:56;;;;;;;1.75;1.13;;;;;;;0.75;53.12;96665.25;5114348;28;20031;-62
2022/01/18 03:37:22;;;;;;;1.30;1.08;;;;;;;0.68;53.37;96681.53;5113408;28;20016;-63
2022/01/18 03:39:47;;;;;;;1.88;1.30;;;;;;;0.59;53.88;96679.78;5114281;28;20423;-63
2022/01/18 03:45:02;;;;;;;3.67;1.38;;;;;;;0.55;53.75;96704.69;5114587;28;20054;-62
2022/01/18 03:47:28;;;;;;;2.08;1.33;;;;;;;0.50;53.41;96709.81;5114316;28;20103;-62
2022/01/18 03:49:53;;;;;;;1.63;0.95;;;;;;;0.43;52.09;96723.50;5114132;28;20115;-61
2022/01/18 03:52:19;;;;;;;1.25;1.15;;;;;;;0.44;51.97;96722.66;5113947;28;20103;-62
2022/01/18 03:54:47;;;;;;;1.80;1.10;;;;;;;0.41;51.72;96739.78;5113961;27;20043;-62
2022/01/18 03:57:14;;;;;;;3.88;1.35;;;;;;;0.35;52.76;96732.88;5113974;28;20019;-62
2022/01/18 03:59:40;;;;;;;3.58;0.90;;;;;;;0.35;51.35;96743.19;5113974;28;20031;-62
2022/01/18 04:02:07;;;;;;;2.75;1.30;;;;;;;0.37;51.28;96751.78;5113916;28;20020;-62
2022/01/18 04:04:33;;;;;;;2.40;1.40;;;;;;;0.27;51.16;96765.44;5113944;28;20059;-62
2022/01/18 04:06:59;;;;;;;1.83;1.40;;;;;;;0.25;52.17;96760.28;5113866;28;20072;-62
2022/01/18 04:09:25;;;;;;;3.33;1.60;;;;;;;0.24;52.41;96758.59;5113721;28;20110;-62
2022/01/18 04:11:52;;;;;;;2.08;1.30;;;;;;;0.21;52.76;96758.56;5113652;28;20030;-62
2022/01/18 04:14:17;;;;;;;0.80;0.80;;;;;;;0.12;52.17;96759.34;5113638;28;20031;-63
2022/01/18 04:16:58;;;;;;;12.43;7.05;;;;;;;0.11;51.63;96763.63;5113921;28;20039;-61
2022/01/18 04:27:28;;;;;;;3.55;1.40;;;;;;;0.11;51.01;96770.47;5113912;28;20130;-62
2022/01/18 04:29:53;;;;;;;1.00;0.90;;;;;;;0.07;49.31;96784.19;5113574;28;20165;-62
2022/01/18 04:32:19;;;;;;;1.90;1.10;;;;;;;0.08;50.07;96791.91;5113541;28;20098;-62
2022/01/18 04:34:44;;;;;;;1.88;1.10;;;;;;;-0.05;49.22;96792.66;5113389;28;20032;-62
2022/01/18 04:37:10;;;;;;;1.52;1.10;;;;;;;-0.01;49.62;96797.84;5113543;28;20027;-62
2022/01/18 04:39:41;;;;;;;1.48;1.23;;;;;;;0.03;49.08;96805.59;5113584;28;20024;-62
2022/01/18 04:42:17;;;;;;;1.00;0.90;;;;;;;0.05;47.89;96804.75;5113525;28;20039;-62
2022/01/18 04:50:10;;;;;;;1.38;0.73;;;;;;;0.04;49.29;96827.88;5117812;28;20043;-63
2022/01/18 04:52:35;;;;;;;1.05;0.80;;;;;;;0.10;49.59;96843.38;5117593;28;20020;-62
2022/01/18 04:55:03;;;;;;;3.38;1.35;;;;;;;0.04;49.01;96846.78;5116102;28;20035;-63
2022/01/18 05:00:13;;;;;;;1.33;0.93;;;;;;;-0.11;48.00;96856.91;5117950;28;20385;-63
2022/01/18 05:02:39;;;;;;;2.33;0.80;;;;;;;-0.11;49.50;96862.94;5117317;28;20461;-63
2022/01/18 05:05:05;;;;;;;2.17;1.13;;;;;;;-0.11;48.96;96873.22;5117223;28;20032;-63
2022/01/18 05:07:31;;;;;;;2.38;1.00;;;;;;;-0.15;47.34;96863.75;5117139;28;20024;-63
2022/01/18 05:09:57;;;;;;;0.98;0.80;;;;;;;-0.13;48.03;96886.06;5117204;28;20072;-62
2022/01/18 05:12:37;;;;;;;1.67;1.02;;;;;;;-0.21;47.78;96872.25;5117082;28;20020;-63
2022/01/18 05:15:10;;;;;;;2.78;1.40;;;;;;;-0.33;48.04;96872.97;5117078;28;20517;-63
2022/01/18 05:17:58;;;;;;;1.88;1.30;;;;;;;-0.24;47.73;96881.66;5117081;27;20056;-63
2022/01/18 05:20:40;;;;;;;4.55;2.50;;;;;;;-0.25;48.01;96888.50;5116604;28;20505;-63
2022/01/18 05:23:06;;;;;;;3.05;1.40;;;;;;;-0.29;46.84;96884.16;5117019;28;20023;-63
2022/01/18 05:25:33;;;;;;;0.90;0.70;;;;;;;-0.33;47.03;96908.97;5116924;28;20354;-63
2022/01/18 05:28:00;;;;;;;1.98;0.90;;;;;;;-0.37;46.91;96907.22;5116887;28;20358;-63
2022/01/18 05:30:27;;;;;;;1.10;0.80;;;;;;;-0.32;46.97;96905.59;5116767;28;20024;-63
2022/01/18 05:32:53;;;;;;;1.65;1.00;;;;;;;-0.26;45.16;96887.66;5116714;28;20020;-63
2022/01/18 05:35:20;;;;;;;2.08;0.88;;;;;;;-0.38;46.45;96897.78;5116605;28;20039;-63
2022/01/18 05:37:49;;;;;;;1.45;0.75;;;;;;;-0.43;46.71;96896.88;5116524;28;20077;-62
2022/01/18 05:40:16;;;;;;;4.03;1.43;;;;;;;-0.42;47.84;96903.75;5116658;28;20067;-63
2022/01/18 05:42:42;;;;;;;2.65;1.15;;;;;;;-0.43;45.44;96902.88;5116684;28;20112;-63
2022/01/18 05:45:09;;;;;;;2.08;1.20;;;;;;;-0.47;46.18;96905.41;5116411;28;20149;-62
2022/01/18 05:47:35;;;;;;;1.45;0.98;;;;;;;-0.51;46.38;96900.22;5116555;28;20114;-63
2022/01/18 05:50:03;;;;;;;1.35;1.00;;;;;;;-0.47;46.57;96919.13;5116446;28;20536;-63
2022/01/18 05:52:28;;;;;;;6.35;1.45;;;;;;;-0.44;46.30;96914.03;5116578;28;20516;-63
2022/01/18 05:54:54;;;;;;;1.88;1.05;;;;;;;-0.40;46.91;96923.47;5116209;28;20031;-62
2022/01/18 05:57:20;;;;;;;7.47;1.60;;;;;;;-0.40;46.38;96933.78;5116239;28;20020;-62
2022/01/18 05:59:47;;;;;;;1.98;1.45;;;;;;;-0.32;46.10;96933.88;5115318;28;20024;-63
2022/01/18 06:02:20;;;;;;;3.00;1.70;;;;;;;-0.34;47.41;96956.13;5116075;28;20051;-63
2022/01/18 06:07:30;;;;;;;1.77;1.45;;;;;;;-0.46;46.49;96956.81;5116393;28;20039;-63
2022/01/18 06:09:57;;;;;;;2.38;1.00;;;;;;;-0.41;46.82;96959.47;5115997;28;20024;-63
2022/01/18 06:12:25;;;;;;;3.95;1.00;;;;;;;-0.40;46.61;96976.59;5116084;28;20102;-62
2022/01/18 06:14:50;;;;;;;1.08;0.80;;;;;;;-0.32;46.18;96979.28;5115952;27;20031;-63
2022/01/18 06:17:16;;;;;;;2.65;1.15;;;;;;;-0.26;46.83;96967.38;5116104;28;20012;-62
2022/01/18 06:19:41;;;;;;;1.67;1.40;;;;;;;-0.24;47.26;96981.94;5115615;28;20549;-62
2022/01/18 06:22:07;;;;;;;2.10;1.80;;;;;;;0.07;46.93;96990.00;5116266;28;20385;-61
2022/01/18 06:24:33;;;;;;;2.17;1.23;;;;;;;1.25;44.63;97008.19;5115787;28;20016;-63
2022/01/18 06:26:58;;;;;;;2.53;0.98;;;;;;;2.78;41.74;97008.72;5115735;28;20499;-64
2022/01/18 06:29:24;;;;;;;2.95;1.02;;;;;;;3.64;39.78;97009.50;5115630;28;20092;-64
2022/01/18 06:31:51;;;;;;;3.92;1.35;;;;;;;4.97;36.48;97003.59;5115708;28;20099;-64
2022/01/18 06:34:17;;;;;;;1.85;1.23;;;;;;;6.28;35.12;97017.84;5097253;28;20096;-64
2022/01/18 06:36:44;;;;;;;4.53;1.48;;;;;;;7.56;31.98;97020.22;5115572;28;20028;-64
2022/01/18 06:39:10;;;;;;;1.20;1.10;;;;;;;7.86;31.60;97017.03;5115618;27;20019;-64
2022/01/18 06:41:36;;;;;;;3.67;1.10;;;;;;;7.95;30.76;97012.50;5115413;28;20362;-64
2022/01/18 06:44:02;;;;;;;2.70;1.33;;;;;;;8.90;31.17;97019.19;5115288;28;20043;-63
2022/01/18 06:46:28;;;;;;;1.75;1.10;;;;;;;9.64;29.27;97028.72;5115297;28;20538;-62
2022/01/18 06:48:54;;;;;;;1.70;1.10;;;;;;;9.78;28.64;97038.81;5115256;28;20107;-64
2022/01/18 06:51:19;;;;;;;2.63;1.60;;;;;;;10.62;27.56;97031.22;5115354;28;20481;-64
2022/01/18 06:53:47;;;;;;;6.82;2.85;;;;;;;12.09;26.11;97043.03;5115053;27;20419;-65
2022/01/18 06:56:17;;;;;;;2.58;1.40;;;;;;;11.78;25.94;97058.97;5115246;27;20057;-65
2022/01/18 06:58:43;;;;;;;2.65;2.15;;;;;;;12.05;25.50;97059.75;5115078;28;20507;-63
2022/01/18 07:01:10;;;;;;;2.95;1.50;;;;;;;12.30;24.23;97064.16;5114992;28;20023;-62
2022/01/18 07:03:37;;;;;;;4.55;2.60;;;;;;;11.95;26.16;97074.13;5114922;28;20024;-64
2022/01/18 07:06:03;;;;;;;6.43;1.38;;;;;;;12.57;24.48;97074.53;5115395;28;20373;-64
2022/01/18 07:08:30;;;;;;;0.93;0.82;;;;;;;12.60;23.41;97074.41;5115263;28;20026;-65
2022/01/18 07:10:56;;;;;;;2.08;1.17;;;;;;;12.41;24.80;97094.38;5114966;28;20388;-63
2022/01/18 07:13:22;;;;;;;1.95;1.40;;;;;;;12.42;24.60;97093.44;5115158;28;20023;-64
2022/01/18 07:15:47;;;;;;;3.78;1.35;;;;;;;13.02;23.99;97092.97;5114702;28;20031;-65
2022/01/18 07:18:13;;;;;;;2.75;1.63;;;;;;;14.53;22.22;97101.66;5114429;28;20114;-65
2022/01/18 07:20:40;;;;;;;1.48;1.38;;;;;;;15.04;21.03;97116.94;5115141;27;20026;-63
2022/01/18 07:23:11;;;;;;;1.17;1.08;;;;;;;15.49;21.79;97114.81;5114829;28;20024;-65
2022/01/18 07:25:44;;;;;;;1.85;1.23;;;;;;;15.24;20.56;97130.94;5114547;28;20042;-65
2022/01/18 07:28:16;;;;;;;4.25;1.98;;;;;;;15.42;21.42;97145.03;5114541;28;20088;-63
2022/01/18 07:30:44;;;;;;;2.40;1.55;;;;;;;15.40;20.84;97147.75;5114725;28;20051;-63
2022/01/18 07:33:12;;;;;;;7.65;5.75;;;;;;;15.89;21.00;97154.16;5114527;28;20481;-65
2022/01/18 07:35:39;;;;;;;8.00;4.53;;;;;;;15.61;20.93;97157.31;5114281;28;20028;-62
2022/01/18 07:38:05;;;;;;;4.35;2.95;;;;;;;15.36;21.18;97146.19;5114668;28;20019;-66
2022/01/18 07:40:33;;;;;;;2.63;1.63;;;;;;;14.37;22.03;97159.38;5114484;28;20026;-65
2022/01/18 07:43:01;;;;;;;1.80;1.45;;;;;;;12.87;23.91;97155.66;5114290;28;20019;-62
2022/01/18 07:45:28;;;;;;;2.22;1.63;;;;;;;13.61;23.98;97153.72;5114426;27;20028;-65
2022/01/18 07:47:54;;;;;;;2.97;1.35;;;;;;;13.94;23.20;97155.03;5114455;28;20020;-64
2022/01/18 07:50:24;;;;;;;2.60;1.42;;;;;;;13.55;23.86;97156.63;5114304;28;20027;-65
2022/01/18 07:52:50;;;;;;;3.30;1.02;;;;;;;14.34;22.55;97149.00;5114136;28;20031;-65
2022/01/18 07:55:16;;;;;;;2.17;1.30;;;;;;;13.48;24.52;97181.38;5113903;28;20380;-65
2022/01/18 07:57:43;;;;;;;1.85;1.40;;;;;;;13.42;23.60;97193.00;5112769;28;20453;-64
2022/01/18 08:00:15;;;;;;;2.33;1.30;;;;;;;13.80;23.23;97186.31;5114601;28;20073;-64
2022/01/18 08:02:42;;;;;;;2.00;1.45;;;;;;;13.37;24.20;97187.91;5114309;28;20019;-63
2022/01/18 08:05:10;;;;;;;2.28;1.40;;;;;;;14.30;23.77;97179.00;5114125;28;20055;-65
2022/01/18 08:07:36;;;;;;;2.70;1.55;;;;;;;15.43;22.53;97167.81;5114034;28;20016;-64
2022/01/18 08:10:04;;;;;;;1.77;1.10;;;;;;;15.06;21.16;97164.28;5114206;28;20019;-62
2022/01/18 08:12:30;;;;;;;1.85;1.50;;;;;;;14.84;22.44;97167.91;5114278;28;20107;-62
2022/01/18 08:15:02;;;;;;;4.13;1.23;;;;;;;14.71;22.45;97178.97;5113869;28;20106;-62
2022/01/18 08:17:28;;;;;;;2.75;1.20;;;;;;;13.19;23.36;97181.63;5113892;28;20036;-64
2022/01/18 08:19:56;;;;;;;3.55;1.25;;;;;;;13.95;23.01;97179.56;5113776;28;20047;-63
2022/01/18 08:22:22;;;;;;;3.47;1.60;;;;;;;14.20;23.04;97170.63;5113385;28;20496;-62
2022/01/18 08:24:48;;;;;;;2.42;1.58;;;;;;;14.06;21.68;97166.81;5113323;28;20052;-64
2022/01/18 08:27:14;;;;;;;3.22;1.40;;;;;;;14.18;22.16;97173.31;5113924;28;20363;-64
2022/01/18 08:29:39;;;;;;;2.50;1.42;;;;;;;15.28;22.24;97190.50;5113869;28;20032;-65
2022/01/18 08:32:06;;;;;;;2.88;1.40;;;;;;;15.17;20.59;97177.81;5113810;28;20153;-62
2022/01/18 08:34:33;;;;;;;2.00;1.23;;;;;;;16.04;20.03;97183.38;5113828;28;20111;-63
2022/01/18 08:36:58;;;;;;;3.20;1.42;;;;;;;14.42;21.98;97193.41;5113528;28;20020;-62
2022/01/18 08:39:24;;;;;;;3.08;1.50;;;;;;;12.36;23.83;97195.09;5113423;28;20115;-64
2022/01/18 08:41:50;;;;;;;1.88;1.27;;;;;;;10.94;26.07;97191.66;5113592;28;20032;-62
2022/01/18 08:44:17;;;;;;;2.83;1.50;;;;;;;10.92;25.65;97206.56;5113843;28;20030;-62
2022/01/18 08:46:43;;;;;;;1.50;1.30;;;;;;;10.74;26.13;97187.88;5113401;28;20028;-62
2022/01/18 08:49:09;;;;;;;1.88;1.20;;;;;;;10.19;27.28;97187.56;5113524;28;20069;-63
2022/01/18 08:51:36;;;;;;;3.03;1.65;;;;;;;9.20;28.73;97191.66;5113420;28;20438;-63
2022/01/18 08:54:04;;;;;;;3.33;1.67;;;;;;;8.90;30.10;97192.28;5113230;28;20023;-62
2022/01/18 08:56:30;;;;;;;1.77;1.20;;;;;;;8.75;30.45;97185.63;5113398;28;20022;-62
2022/01/18 08:58:57;;;;;;;3.25;1.73;;;;;;;9.01;30.16;97194.69;5113316;28;20047;-63
2022/01/18 09:01:23;;;;;;;3.00;1.65;;;;;;;8.78;30.51;97188.19;5113279;28;20040;-64
2022/01/18 09:03:52;;;;;;;2.85;1.40;;;;;;;8.17;30.06;97196.25;5113406;28;20023;-61
2022/01/18 09:06:19;;;;;;;2.25;1.20;;;;;;;7.58;31.70;97204.16;5113131;28;20020;-62
2022/01/18 09:08:54;;;;;;;5.70;1.52;;;;;;;7.29;31.56;97197.63;5113840;28;20545;-63
2022/01/18 09:11:20;;;;;;;2.25;1.20;;;;;;;7.03;33.00;97204.06;5113188;28;20027;-64
2022/01/18 09:13:46;;;;;;;7.50;1.48;;;;;;;6.93;34.53;97203.31;5113588;28;20084;-63
2022/01/18 09:16:11;;;;;;;4.22;1.70;;;;;;;6.53;33.96;97196.00;5113330;28;20172;-63
2022/01/18 09:18:38;;;;;;;3.47;1.80;;;;;;;6.49;33.88;97196.91;5113083;28;20092;-62
2022/01/18 09:21:04;;;;;;;1.65;1.38;;;;;;;6.42;35.96;97185.72;5113278;28;20027;-62
2022/01/18 09:23:31;;;;;;;2.67;1.20;;;;;;;6.24;35.50;97169.47;5113081;28;20046;-62
2022/01/18 09:25:57;;;;;;;3.30;1.25;;;;;;;6.18;37.06;97164.31;5113347;28;20141;-62
2022/01/18 09:28:23;;;;;;;3.45;1.48;;;;;;;5.88;36.82;97172.38;5113149;28;20055;-63
2022/01/18 09:30:48;;;;;;;1.60;1.10;;;;;;;5.67;35.36;97166.50;5113280;28;20100;-64
2022/01/18 09:33:14;;;;;;;3.08;1.52;;;;;;;5.55;37.69;97157.06;5113147;28;20028;-62
2022/01/18 09:35:40;;;;;;;2.38;1.30;;;;;;;5.27;35.09;97164.19;5116136;28;20023;-61
2022/01/18 09:38:06;;;;;;;2.40;1.23;;;;;;;5.22;36.13;97163.34;5116741;28;20027;-64
2022/01/18 09:40:37;;;;;;;2.13;1.08;;;;;;;5.04;37.98;97160.88;5116724;28;20027;-64
2022/01/18 09:43:08;;;;;;;2.65;1.27;;;;;;;5.20;36.96;97165.13;5116635;28;20035;-64
2022/01/18 09:45:34;;;;;;;3.47;0.90;;;;;;;5.27;37.87;97152.06;5116574;27;20510;-64
2022/01/18 09:48:00;;;;;;;2.03;1.40;;;;;;;5.28;36.65;97137.38;5115191;28;20051;-64
2022/01/18 09:50:29;;;;;;;2.25;1.00;;;;;;;5.29;36.59;97141.69;5116473;28;20027;-63
2022/01/18 09:52:56;;;;;;;3.80;1.55;;;;;;;5.29;36.59;97134.78;5116547;28;20020;-64
2022/01/18 09:55:25;;;;;;;3.78;1.60;;;;;;;5.40;36.78;97136.41;5116153;28;20030;-64
2022/01/18 09:57:54;;;;;;;1.85;1.02;;;;;;;5.35;35.82;97135.59;5116596;28;20034;-63
2022/01/18 10:00:24;;;;;;;2.05;1.13;;;;;;;5.36;36.26;97142.50;5116333;28;20140;-64
2022/01/18 10:02:50;;;;;;;2.03;1.08;;;;;;;5.25;35.46;97142.59;5116392;28;20024;-64
2022/01/18 10:05:48;;;;;;;2.70;1.05;;;;;;;5.17;34.64;97150.41;5116548;28;20096;-63
2022/01/18 10:08:16;;;;;;;2.65;1.65;;;;;;;5.11;36.55;97140.06;5115972;28;20043;-64
2022/01/18 10:10:49;;;;;;;1.88;1.15;;;;;;;5.12;34.48;97129.69;5116091;28;20046;-64
2022/01/18 10:13:32;;;;;;;2.92;1.30;;;;;;;5.13;34.71;97139.22;5116078;28;20104;-64
2022/01/18 10:16:11;;;;;;;2.22;1.10;;;;;;;5.05;36.59;97134.06;5116002;28;20362;-64
2022/01/18 10:18:56;;;;;;;1.45;1.10;;;;;;;5.18;37.74;97128.81;5115638;28;20046;-64
2022/01/18 10:21:34;;;;;;;1.23;1.05;;;;;;;5.39;36.27;97117.38;5115852;28;20108;-63
2022/01/18 10:24:17;;;;;;;1.70;1.08;;;;;;;5.46;35.25;97128.59;5115889;28;20084;-63
2022/01/18 10:26:45;;;;;;;4.03;1.20;;;;;;;5.43;34.74;97124.28;5116052;28;20153;-62
2022/01/18 10:29:13;;;;;;;3.17;1.83;;;;;;;5.50;35.64;97124.22;5116007;27;20437;-64
2022/01/18 10:31:56;;;;;;;1.48;1.10;;;;;;;5.57;34.55;97133.69;5114655;28;20027;-64
2022/01/18 10:37:07;;;;;;;3.45;1.27;;;;;;;5.43;33.30;97113.91;5115829;28;20107;-65
2022/01/18 10:39:37;;;;;;;3.00;1.27;;;;;;;5.46;33.48;97114.75;5115810;28;20028;-64
2022/01/18 10:42:24;;;;;;;1.63;0.77;;;;;;;5.52;34.59;97102.59;5115564;28;20119;-63
2022/01/18 10:45:07;;;;;;;1.30;0.98;;;;;;;5.59;34.97;97094.72;5114203;28;20434;-64
2022/01/18 10:47:34;;;;;;;1.98;1.33;;;;;;;5.54;35.96;97099.97;5115059;28;20466;-64
2022/01/18 10:50:12;;;;;;;2.53;1.58;;;;;;;5.76;35.40;97102.38;5115239;28;20144;-64
2022/01/18 10:52:39;;;;;;;3.38;1.17;;;;;;;5.78;34.24;97088.50;5115359;28;20026;-64
2022/01/18 10:55:06;;;;;;;1.50;1.00;;;;;;;5.68;34.02;97089.47;5115154;28;20492;-61
2022/01/18 10:57:38;;;;;;;1.60;1.10;;;;;;;5.76;34.00;97079.88;5115029;28;20019;-63
2022/01/18 11:00:09;;;;;;;2.25;1.40;;;;;;;5.84;34.94;97082.38;5113881;28;20024;-64
2022/01/18 11:02:36;;;;;;;2.42;1.38;;;;;;;5.86;34.63;97077.16;5115136;28;20027;-64
2022/01/18 11:05:12;;;;;;;2.88;1.17;;;;;;;5.93;34.17;97079.69;5114977;28;20107;-64
2022/01/18 11:07:39;;;;;;;1.67;1.10;;;;;;;5.87;33.66;97068.50;5115042;28;20034;-65
2022/01/18 11:10:07;;;;;;;2.05;0.98;;;;;;;5.88;32.48;97071.09;5114835;28;20046;-64
2022/01/18 11:12:53;;;;;;;1.90;1.05;;;;;;;5.77;33.28;97065.13;5114874;28;20027;-63
2022/01/18 11:15:21;;;;;;;1.40;1.10;;;;;;;5.87;34.16;97071.13;5114779;28;20050;-64
2022/01/18 11:17:58;;;;;;;2.42;1.17;;;;;;;5.87;33.06;97071.94;5114645;28;20031;-63
2022/01/18 11:20:26;;;;;;;1.80;0.90;;;;;;;5.92;33.95;97071.91;5114743;28;20126;-64
2022/01/18 11:22:52;;;;;;;3.33;0.98;;;;;;;5.90;31.91;97082.31;5114644;28;20027;-63
2022/01/18 11:25:20;;;;;;;1.27;1.08;;;;;;;5.83;32.78;97072.88;5114670;28;20465;-63
2022/01/18 11:27:50;;;;;;;2.75;0.98;;;;;;;5.87;35.02;97069.34;5114507;28;20070;-63
2022/01/18 11:30:18;;;;;;;1.33;1.02;;;;;;;5.88;32.62;97085.81;5114488;28;20070;-64
2022/01/18 11:32:44;;;;;;;3.50;1.08;;;;;;;5.74;34.18;97079.03;5114463;28;20043;-63
2022/01/18 11:35:19;;;;;;;1.85;1.08;;;;;;;5.63;32.59;97084.31;5114325;28;20067;-63
2022/01/18 11:37:54;;;;;;;2.20;1.10;;;;;;;5.68;31.07;97087.72;5114535;28;20027;-62
2022/01/18 11:40:21;;;;;;;2.53;1.10;;;;;;;5.64;32.19;97083.44;5114401;28;20035;-61
2022/01/18 11:42:55;;;;;;;3.25;1.30;;;;;;;5.60;30.38;97083.50;5114275;28;20492;-62
2022/01/18 11:45:24;;;;;;;1.70;0.90;;;;;;;5.51;31.33;97087.88;5114298;28;20032;-62
2022/01/18 11:48:17;;;;;;;3.63;1.33;;;;;;;5.62;30.79;97086.91;5114407;28;20026;-62
2022/01/18 11:51:05;;;;;;;1.85;1.20;;;;;;;5.62;29.80;97082.59;5105883;28;20040;-64
2022/01/18 11:53:44;;;;;;;3.45;1.40;;;;;;;5.59;30.42;97079.16;5114185;28;20100;-63
2022/01/18 11:56:15;;;;;;;2.13;1.20;;;;;;;5.68;31.24;97074.75;5114005;28;20035;-63
2022/01/18 11:58:43;;;;;;;1.30;1.00;;;;;;;5.54;29.52;97067.09;5113283;28;20023;-62
2022/01/18 12:01:10;;;;;;;3.58;1.13;;;;;;;5.39;29.15;97080.22;5113946;28;20015;-63
2022/01/18 12:03:48;;;;;;;3.38;1.42;;;;;;;5.28;30.80;97065.59;5113862;28;20028;-62
2022/01/18 12:06:37;;;;;;;1.30;0.95;;;;;;;5.41;31.34;97076.72;5113771;28;20072;-63
2022/01/18 12:09:38;;;;;;;1.17;1.02;;;;;;;5.44;32.06;97081.03;5113663;28;20028;-63
2022/01/18 12:12:05;;;;;;;2.45;1.40;;;;;;;5.33;31.89;97086.31;5113759;28;20027;-62
2022/01/18 12:14:35;;;;;;;1.88;1.25;;;;;;;5.33;33.05;97085.44;5113561;28;20023;-64
2022/01/18 12:17:15;;;;;;;1.70;1.10;;;;;;;5.26;30.76;97088.09;5113764;28;20485;-63
2022/01/18 12:19:47;;;;;;;3.95;1.40;;;;;;;5.20;31.49;97097.66;5113481;28;20127;-62
2022/01/18 12:22:14;;;;;;;2.75;1.23;;;;;;;5.02;33.48;97100.38;5113703;28;20047;-63
2022/01/18 12:24:46;;;;;;;3.13;1.45;;;;;;;4.99;34.07;97097.78;5113564;28;20024;-64
2022/01/18 12:27:32;;;;;;;3.67;1.25;;;;;;;4.99;34.45;97100.38;5113586;28;20066;-63
2022/01/18 12:30:53;;;;;;;2.10;1.35;;;;;;;4.93;34.72;97118.56;5113605;28;20036;-63
2022/01/18 12:33:20;;;;;;;1.88;1.10;;;;;;;4.76;34.85;97110.91;5110671;28;20114;-63
2022/01/18 12:35:46;;;;;;;3.60;1.83;;;;;;;4.72;36.07;97110.06;5113446;28;20035;-63
2022/01/18 12:38:24;;;;;;;2.22;1.08;;;;;;;4.83;35.15;97117.78;5113493;28;20048;-63
2022/01/18 12:40:51;;;;;;;2.03;0.80;;;;;;;4.78;34.12;97109.16;5113531;28;20023;-63
2022/01/18 12:46:04;;;;;;;2.88;1.45;;;;;;;4.54;35.22;97111.88;5113784;28;20050;-63
2022/01/18 12:48:33;;;;;;;3.90;1.52;;;;;;;4.54;34.12;97129.16;5113440;28;20355;-62
2022/01/18 12:51:00;;;;;;;1.63;1.10;;;;;;;4.55;35.78;97136.91;5113406;28;20081;-63
2022/01/18 12:53:29;;;;;;;3.47;1.33;;;;;;;4.49;34.74;97129.16;5113569;28;20015;-62
2022/01/18 12:55:57;;;;;;;1.65;1.17;;;;;;;4.49;34.60;97133.50;5113379;28;20066;-63
2022/01/18 12:58:22;;;;;;;1.35;0.95;;;;;;;4.46;35.14;97131.78;5113330;28;20028;-63
2022/01/18 13:00:54;;;;;;;2.30;1.33;;;;;;;4.43;34.44;97148.19;5113247;28;20026;-62
2022/01/18 13:03:33;;;;;;;3.13;1.30;;;;;;;4.34;34.56;97152.56;5113329;28;20106;-63
2022/01/18 13:06:08;;;;;;;1.98;1.30;;;;;;;4.30;35.01;97149.97;5113286;28;20426;-62
2022/01/18 13:08:47;;;;;;;3.25;0.95;;;;;;;4.18;35.35;97150.00;5113196;28;20029;-62
2022/01/18 13:11:18;;;;;;;3.70;1.35;;;;;;;4.14;35.58;97158.66;5117200;28;20038;-63